createdAt,value
2019-04-26T00:01:26.987Z,16.01
2019-04-26T00:03:57.550Z,16.07
2019-04-26T00:06:28.288Z,16.13
2019-04-26T00:09:15.812Z,16.11
2019-04-26T00:12:07.941Z,16.14
2019-04-26T00:14:56.218Z,16.02
2019-04-26T00:17:44.109Z,16.02
2019-04-26T00:20:15.034Z,15.96
2019-04-26T00:22:45.607Z,15.96
2019-04-26T00:25:16.524Z,15.93
2019-04-26T00:27:47.056Z,16.07
2019-04-26T00:30:17.620Z,16.05
2019-04-26T00:32:48.072Z,15.98
2019-04-26T00:35:18.571Z,16.00
2019-04-26T00:37:49.034Z,15.87
2019-04-26T00:40:20.356Z,15.87
2019-04-26T00:42:52.256Z,15.91
2019-04-26T00:45:23.921Z,15.93
2019-04-26T00:47:56.111Z,15.98
2019-04-26T00:50:26.585Z,15.96
2019-04-26T00:52:57.747Z,15.92
2019-04-26T00:55:30.227Z,16.14
2019-04-26T00:58:01.599Z,16.22
2019-04-26T01:00:32.138Z,16.19
2019-04-26T01:03:02.715Z,16.28
2019-04-26T01:05:34.896Z,16.26
2019-04-26T01:08:05.427Z,16.25
2019-04-26T01:10:36.173Z,16.17
2019-04-26T01:13:06.646Z,16.07
2019-04-26T01:15:37.539Z,16.19
2019-04-26T01:18:08.109Z,16.23
2019-04-26T01:20:40.842Z,16.19
2019-04-26T01:23:17.379Z,16.10
2019-04-26T01:26:11.998Z,15.76
2019-04-26T01:28:55.165Z,15.77
2019-04-26T01:31:29.253Z,15.84
2019-04-26T01:33:59.786Z,16.06
2019-04-26T01:36:34.206Z,16.12
2019-04-26T01:39:17.535Z,16.16
2019-04-26T01:41:57.220Z,16.42
2019-04-26T01:44:47.977Z,16.42
2019-04-26T01:47:20.047Z,16.49
2019-04-26T01:49:51.584Z,16.47
2019-04-26T01:52:22.845Z,16.12
2019-04-26T01:54:54.292Z,16.02
2019-04-26T01:57:29.892Z,15.91
2019-04-26T02:00:10.746Z,16.14
2019-04-26T02:02:53.916Z,16.11
2019-04-26T02:05:26.296Z,16.05
2019-04-26T02:07:57.119Z,15.85
2019-04-26T02:10:28.696Z,15.70
2019-04-26T02:13:00.074Z,15.76
2019-04-26T02:15:33.885Z,15.71
2019-04-26T02:18:05.261Z,15.71
2019-04-26T02:21:04.239Z,15.83
2019-04-26T02:23:44.637Z,15.80
2019-04-26T02:26:34.638Z,15.85
2019-04-26T02:29:12.899Z,15.68
2019-04-26T02:31:48.028Z,15.59
2019-04-26T02:34:18.481Z,15.41
2019-04-26T02:36:58.056Z,15.22
2019-04-26T02:39:29.358Z,15.23
2019-04-26T02:42:06.309Z,15.19
2019-04-26T02:44:58.092Z,15.10
2019-04-26T02:48:02.229Z,14.88
2019-04-26T02:50:41.879Z,14.85
2019-04-26T02:53:25.255Z,14.88
2019-04-26T02:56:37.676Z,14.62
2019-04-26T02:59:38.162Z,14.32
2019-04-26T03:02:32.290Z,14.20
2019-04-26T03:05:07.775Z,14.20
2019-04-26T03:08:11.658Z,14.06
2019-04-26T03:10:51.805Z,13.97
2019-04-26T03:13:48.955Z,13.83
2019-04-26T03:16:43.068Z,13.69
2019-04-26T03:19:49.424Z,13.62
2019-04-26T03:22:57.510Z,13.65
2019-04-26T03:26:22.355Z,13.54
2019-04-26T03:29:37.632Z,13.46
2019-04-26T03:32:56.825Z,13.63
2019-04-26T03:35:58.257Z,13.56
2019-04-26T03:38:45.276Z,13.48
2019-04-26T03:41:44.313Z,13.31
2019-04-26T03:44:42.827Z,13.23
2019-04-26T03:47:20.526Z,13.23
2019-04-26T03:50:21.508Z,13.44
2019-04-26T03:53:12.945Z,13.61
2019-04-26T03:56:58.473Z,13.75
2019-04-26T03:59:46.716Z,13.92
2019-04-26T04:02:45.721Z,13.90
2019-04-26T04:05:37.262Z,13.95
2019-04-26T04:08:11.313Z,13.99
2019-04-26T04:10:49.632Z,13.92
2019-04-26T04:13:44.193Z,13.91
2019-04-26T04:17:20.850Z,13.83
2019-04-26T04:20:30.038Z,13.93
2019-04-26T04:24:00.962Z,13.91
2019-04-26T04:27:41.949Z,13.80
2019-04-26T04:30:49.412Z,13.69
2019-04-26T04:34:10.181Z,13.73
2019-04-26T04:36:51.899Z,13.65
2019-04-26T04:39:40.830Z,13.62
2019-04-26T04:42:43.410Z,13.54
2019-04-26T04:45:53.040Z,13.58
2019-04-26T04:48:58.362Z,13.54
2019-04-26T04:52:32.434Z,13.45
2019-04-26T04:55:16.578Z,13.55
2019-04-26T04:58:11.325Z,13.55
2019-04-26T05:01:50.858Z,13.67
2019-04-26T05:04:43.753Z,13.77
2019-04-26T05:07:29.940Z,13.94
2019-04-26T05:10:26.192Z,14.12
2019-04-26T05:13:38.050Z,14.24
2019-04-26T05:16:33.742Z,14.35
2019-04-26T05:19:54.910Z,14.56
2019-04-26T05:22:58.660Z,14.45
2019-04-26T05:27:01.071Z,14.52
2019-04-26T05:30:56.132Z,14.49
2019-04-26T05:34:11.226Z,14.44
2019-04-26T05:37:26.744Z,14.54
2019-04-26T05:40:17.319Z,14.54
2019-04-26T05:43:53.920Z,14.33
2019-04-26T05:47:22.762Z,14.34
2019-04-26T05:51:26.146Z,14.33
2019-04-26T05:54:47.750Z,14.29
2019-04-26T05:57:59.066Z,14.25
2019-04-26T06:01:16.831Z,14.32
2019-04-26T06:04:25.369Z,14.25
2019-04-26T06:07:44.348Z,14.16
2019-04-26T06:10:33.243Z,14.10
2019-04-26T06:14:02.349Z,14.07
2019-04-26T06:17:22.041Z,14.04
2019-04-26T06:20:27.072Z,14.12
2019-04-26T06:23:47.400Z,14.29
2019-04-26T06:27:14.536Z,14.60
2019-04-26T06:30:17.104Z,14.58
2019-04-26T06:33:33.145Z,14.70
2019-04-26T06:36:13.554Z,14.91
2019-04-26T06:39:26.599Z,14.73
2019-04-26T06:42:32.683Z,14.72
2019-04-26T06:45:40.571Z,14.67
2019-04-26T06:48:34.848Z,14.71
2019-04-26T06:51:24.748Z,14.58
2019-04-26T06:54:16.178Z,14.44
2019-04-26T06:57:59.992Z,14.54
2019-04-26T07:00:58.989Z,14.62
2019-04-26T07:04:00.628Z,14.62
2019-04-26T07:06:39.733Z,14.56
2019-04-26T07:09:13.083Z,14.67
2019-04-26T07:12:32.532Z,14.69
2019-04-26T07:15:57.005Z,14.74
2019-04-26T07:19:06.173Z,14.89
2019-04-26T07:22:35.189Z,15.00
2019-04-26T07:26:11.331Z,15.04
2019-04-26T07:29:31.543Z,15.15
2019-04-26T07:32:24.514Z,15.25
2019-04-26T07:35:23.829Z,15.52
2019-04-26T07:39:20.721Z,15.72
2019-04-26T07:42:53.478Z,15.48
2019-04-26T07:46:19.323Z,15.61
2019-04-26T07:49:44.783Z,15.45
2019-04-26T07:52:49.096Z,15.53
2019-04-26T07:55:52.433Z,15.53
2019-04-26T07:59:44.228Z,15.67
2019-04-26T08:02:43.605Z,15.65
2019-04-26T08:05:32.739Z,15.64
2019-04-26T08:08:08.967Z,15.56
2019-04-26T08:10:43.625Z,15.44
2019-04-26T08:13:18.833Z,15.51
2019-04-26T08:16:30.525Z,15.73
2019-04-26T08:19:09.029Z,15.83
2019-04-26T08:21:47.997Z,15.80
2019-04-26T08:24:27.904Z,15.80
2019-04-26T08:27:23.993Z,15.90
2019-04-26T08:30:10.117Z,15.95
2019-04-26T08:32:47.366Z,15.75
2019-04-26T08:35:29.060Z,15.72
2019-04-26T08:38:16.041Z,15.84
2019-04-26T08:40:45.239Z,15.55
2019-04-26T08:43:37.247Z,15.77
2019-04-26T08:46:20.714Z,15.98
2019-04-26T08:49:11.207Z,15.75
2019-04-26T08:51:45.734Z,15.84
2019-04-26T08:54:24.894Z,15.75
2019-04-26T08:57:09.713Z,15.70
2019-04-26T08:59:46.636Z,15.45
2019-04-26T09:02:40.435Z,15.50
2019-04-26T09:05:28.148Z,15.83
2019-04-26T09:08:03.965Z,15.65
2019-04-26T09:10:43.295Z,15.63
2019-04-26T09:13:17.157Z,15.64
2019-04-26T09:16:19.474Z,15.58
2019-04-26T09:18:54.161Z,15.76
2019-04-26T09:21:33.702Z,15.97
2019-04-26T09:24:25.112Z,16.11
2019-04-26T09:27:00.472Z,16.43
2019-04-26T09:30:04.993Z,16.50
2019-04-26T09:32:42.012Z,16.52
2019-04-26T09:35:15.304Z,16.28
2019-04-26T09:37:45.947Z,16.15
2019-04-26T09:40:21.523Z,16.11
2019-04-26T09:43:15.068Z,16.22
2019-04-26T09:46:15.560Z,16.32
2019-04-26T09:48:56.158Z,16.05
2019-04-26T09:51:26.954Z,15.94
2019-04-26T09:53:57.679Z,16.01
2019-04-26T09:56:29.176Z,16.12
2019-04-26T09:59:05.202Z,16.03
2019-04-26T10:01:34.641Z,16.13
2019-04-26T10:04:05.118Z,16.15
2019-04-26T10:06:35.871Z,16.14
2019-04-26T10:09:12.855Z,16.35
2019-04-26T10:11:48.279Z,16.39
2019-04-26T10:14:26.344Z,16.38
2019-04-26T10:17:25.319Z,16.40
2019-04-26T10:19:57.584Z,16.17
2019-04-26T10:22:31.067Z,16.30
2019-04-26T10:25:08.083Z,16.23
2019-04-26T10:27:40.283Z,16.13
2019-04-26T10:30:10.826Z,15.99
2019-04-26T10:32:41.369Z,16.02
2019-04-26T10:35:13.434Z,15.82
2019-04-26T10:37:47.965Z,16.07
2019-04-26T10:40:17.689Z,15.85
2019-04-26T10:42:48.913Z,15.78
2019-04-26T10:45:19.887Z,15.68
2019-04-26T10:47:51.337Z,15.82
2019-04-26T10:50:22.259Z,15.70
2019-04-26T10:53:02.672Z,15.57
2019-04-26T10:56:01.522Z,15.55
2019-04-26T10:58:49.631Z,15.55
2019-04-26T11:01:22.249Z,15.45
2019-04-26T11:03:52.661Z,15.57
2019-04-26T11:06:27.882Z,15.73
2019-04-26T11:08:57.059Z,15.66
2019-04-26T11:11:27.894Z,15.75
2019-04-26T11:13:59.244Z,15.66
2019-04-26T11:16:29.734Z,15.64
2019-04-26T11:19:01.206Z,15.65
2019-04-26T11:21:34.211Z,15.78
2019-04-26T11:24:04.719Z,15.53
2019-04-26T11:26:36.292Z,15.55
2019-04-26T11:29:06.967Z,15.54
2019-04-26T11:31:37.554Z,15.51
2019-04-26T11:34:08.342Z,15.65
2019-04-26T11:36:41.798Z,15.81
2019-04-26T11:39:13.544Z,15.81
2019-04-26T11:41:44.922Z,15.72
2019-04-26T11:44:15.477Z,15.90
2019-04-26T11:46:46.350Z,16.11
2019-04-26T11:49:16.820Z,16.50
2019-04-26T11:51:50.204Z,16.63
2019-04-26T11:54:22.223Z,16.73
2019-04-26T11:56:54.518Z,16.44
2019-04-26T11:59:27.120Z,16.17
2019-04-26T12:01:57.440Z,15.97
2019-04-26T12:04:49.595Z,16.10
2019-04-26T12:07:24.289Z,15.96
2019-04-26T12:09:56.265Z,15.85
2019-04-26T12:12:27.687Z,15.68
2019-04-26T12:14:58.250Z,15.62
2019-04-26T12:17:31.141Z,15.70
2019-04-26T12:20:01.163Z,15.58
2019-04-26T12:22:31.668Z,15.75
2019-04-26T12:25:03.322Z,15.59
2019-04-26T12:27:34.544Z,15.58
2019-04-26T12:30:05.407Z,15.69
2019-04-26T12:32:36.124Z,15.93
2019-04-26T12:35:06.683Z,15.83
2019-04-26T12:37:37.275Z,15.86
2019-04-26T12:40:11.357Z,15.80
2019-04-26T12:42:43.477Z,15.58
2019-04-26T12:45:38.533Z,15.70
2019-04-26T12:48:12.308Z,15.67
2019-04-26T12:50:43.339Z,15.51
2019-04-26T12:53:13.951Z,15.73
2019-04-26T12:55:44.572Z,15.78
2019-04-26T12:58:15.441Z,15.63
2019-04-26T13:00:53.745Z,15.55
2019-04-26T13:03:20.576Z,15.63
2019-04-26T13:05:57.717Z,15.62
2019-04-26T13:08:23.587Z,15.82
2019-04-26T13:11:28.314Z,15.82
2019-04-26T13:14:03.049Z,15.79
2019-04-26T13:16:49.461Z,15.57
2019-04-26T13:19:21.053Z,15.72
2019-04-26T13:21:51.684Z,15.81
2019-04-26T13:24:22.234Z,15.76
2019-04-26T13:26:52.969Z,15.50
2019-04-26T13:29:23.537Z,15.51
2019-04-26T13:31:54.057Z,15.61
2019-04-26T13:34:24.623Z,15.59
2019-04-26T13:36:55.169Z,16.01
2019-04-26T13:39:25.707Z,16.03
2019-04-26T13:42:02.948Z,16.15
2019-04-26T13:44:46.389Z,16.22
2019-04-26T13:47:35.896Z,16.04
2019-04-26T13:50:29.253Z,16.00
2019-04-26T13:52:59.825Z,15.70
2019-04-26T13:55:30.531Z,15.54
2019-04-26T13:58:01.160Z,15.68
2019-04-26T14:00:33.016Z,15.41
2019-04-26T14:03:03.569Z,15.52
2019-04-26T14:05:34.123Z,15.65
2019-04-26T14:08:04.833Z,15.57
2019-04-26T14:10:35.726Z,15.57
2019-04-26T14:13:06.294Z,15.38
2019-04-26T14:15:39.496Z,15.68
2019-04-26T14:18:09.411Z,15.70
2019-04-26T14:20:39.933Z,15.95
2019-04-26T14:23:35.259Z,15.87
2019-04-26T14:26:08.837Z,15.73
2019-04-26T14:28:41.880Z,15.45
2019-04-26T14:31:12.372Z,15.42
2019-04-26T14:33:44.069Z,15.31
2019-04-26T14:36:18.050Z,15.33
2019-04-26T14:38:46.934Z,15.04
2019-04-26T14:41:21.807Z,14.83
2019-04-26T14:43:52.596Z,14.67
2019-04-26T14:46:23.016Z,14.63
2019-04-26T14:49:01.430Z,14.59
2019-04-26T14:51:26.114Z,14.58
2019-04-26T14:53:56.661Z,14.85
2019-04-26T14:56:29.436Z,14.93
2019-04-26T14:59:01.702Z,14.70
2019-04-26T15:01:45.201Z,14.53
2019-04-26T15:04:33.377Z,14.47
2019-04-26T15:07:05.726Z,14.90
2019-04-26T15:09:36.698Z,14.81
2019-04-26T15:12:07.609Z,15.13
2019-04-26T15:14:39.749Z,15.39
2019-04-26T15:17:12.280Z,15.57
2019-04-26T15:19:45.862Z,15.98
2019-04-26T15:22:15.065Z,16.95
2019-04-26T15:24:45.621Z,16.73
2019-04-26T15:27:16.201Z,17.47
2019-04-26T15:29:46.743Z,18.36
2019-04-26T15:32:17.480Z,17.61
2019-04-26T15:34:48.052Z,17.32
2019-04-26T15:37:20.309Z,17.97
2019-04-26T15:40:09.900Z,17.61
2019-04-26T15:42:58.882Z,15.97
2019-04-26T15:45:35.918Z,15.57
2019-04-26T15:48:39.037Z,16.23
2019-04-26T15:51:09.632Z,16.19
2019-04-26T15:53:43.450Z,15.83
2019-04-26T15:56:16.271Z,15.67
2019-04-26T15:58:48.957Z,15.01
2019-04-26T16:01:16.926Z,14.74
2019-04-26T16:03:50.231Z,14.85
2019-04-26T16:06:20.861Z,14.36
2019-04-26T16:08:52.154Z,14.16
2019-04-26T16:11:22.781Z,14.20
2019-04-26T16:13:55.453Z,14.15
2019-04-26T16:16:29.197Z,14.13
2019-04-26T16:18:57.891Z,13.97
2019-04-26T16:21:28.701Z,13.90
2019-04-26T16:23:59.314Z,13.87
2019-04-26T16:26:29.896Z,13.67
2019-04-26T16:29:19.779Z,13.70
2019-04-26T16:32:08.245Z,13.67
2019-04-26T16:34:41.468Z,13.56
2019-04-26T16:37:16.574Z,13.62
2019-04-26T16:39:48.385Z,13.54
2019-04-26T16:42:16.496Z,13.54
2019-04-26T16:44:47.059Z,13.58
2019-04-26T16:47:17.688Z,13.51
2019-04-26T16:49:48.196Z,13.47
2019-04-26T16:52:18.791Z,13.51
2019-04-26T16:54:49.431Z,13.41
2019-04-26T16:57:20.157Z,13.46
2019-04-26T16:59:57.032Z,13.50
2019-04-26T17:04:55.302Z,13.26
2019-04-26T17:07:27.380Z,13.33
2019-04-26T17:09:51.041Z,13.36
2019-04-26T17:09:59.616Z,13.36
2019-04-26T17:12:30.542Z,13.41
2019-04-26T17:15:01.040Z,13.37
2019-04-26T17:17:33.110Z,13.32
2019-04-26T17:20:06.696Z,13.23
2019-04-26T17:23:00.783Z,13.12
2019-04-26T17:25:45.421Z,12.91
2019-04-26T17:28:18.083Z,12.92
2019-04-26T17:30:48.369Z,12.88
2019-04-26T17:33:23.555Z,12.83
2019-04-26T17:35:51.229Z,12.89
2019-04-26T17:38:22.488Z,12.77
2019-04-26T17:40:53.127Z,12.80
2019-04-26T17:43:23.718Z,12.73
2019-04-26T17:45:54.214Z,12.64
2019-04-26T17:48:24.774Z,12.49
2019-04-26T17:50:55.367Z,12.33
2019-04-26T17:53:31.168Z,12.19
2019-04-26T17:55:58.538Z,12.04
2019-04-26T17:58:33.724Z,11.95
2019-04-26T18:01:03.915Z,11.93
2019-04-26T18:03:34.485Z,11.83
2019-04-26T18:06:05.128Z,11.83
2019-04-26T18:08:55.265Z,11.84
2019-04-26T18:11:26.085Z,11.89
2019-04-26T18:13:56.616Z,11.86
2019-04-26T18:16:29.488Z,11.80
2019-04-26T18:19:31.360Z,11.82
2019-04-26T18:22:23.146Z,11.79
2019-04-26T18:24:53.810Z,11.84
2019-04-26T18:27:24.346Z,11.82
2019-04-26T18:29:54.961Z,11.82
2019-04-26T18:32:25.554Z,11.88
2019-04-26T18:34:56.132Z,11.79
2019-04-26T18:37:26.758Z,11.78
2019-04-26T18:40:00.943Z,11.71
2019-04-26T18:42:29.602Z,11.81
2019-04-26T18:45:00.215Z,11.77
2019-04-26T18:47:35.764Z,11.77
2019-04-26T18:50:07.435Z,11.75
2019-04-26T18:52:42.273Z,11.71
2019-04-26T18:55:29.020Z,11.72
2019-04-26T18:58:01.464Z,11.73
2019-04-26T19:00:34.247Z,11.62
2019-04-26T19:03:05.272Z,11.54
2019-04-26T19:05:36.028Z,11.48
2019-04-26T19:08:07.557Z,11.50
2019-04-26T19:10:38.941Z,11.47
2019-04-26T19:13:24.491Z,11.43
2019-04-26T19:16:03.675Z,11.33
2019-04-26T19:18:58.863Z,11.34
2019-04-26T19:21:41.672Z,11.36
2019-04-26T19:24:19.782Z,11.28
2019-04-26T19:26:49.675Z,11.32
2019-04-26T19:29:18.675Z,11.27
2019-04-26T19:31:49.166Z,11.27
2019-04-26T19:34:19.754Z,11.33
2019-04-26T19:36:50.416Z,11.25
2019-04-26T19:39:30.425Z,11.27
2019-04-26T19:41:57.626Z,11.31
2019-04-26T19:44:25.643Z,11.31
2019-04-26T19:47:27.306Z,11.31
2019-04-26T19:50:09.791Z,11.31
2019-04-26T19:52:58.994Z,11.32
2019-04-26T19:55:55.003Z,11.33
2019-04-26T19:58:28.135Z,11.32
2019-04-26T20:00:59.513Z,11.33
2019-04-26T20:03:30.060Z,11.30
2019-04-26T20:06:00.646Z,11.36
2019-04-26T20:08:35.478Z,11.42
2019-04-26T20:11:03.518Z,11.46
2019-04-26T20:13:34.083Z,11.51
2019-04-26T20:16:05.985Z,11.41
2019-04-26T20:18:38.947Z,11.40
2019-04-26T20:21:12.607Z,11.36
2019-04-26T20:23:43.795Z,11.35
2019-04-26T20:26:14.011Z,11.41
2019-04-26T20:28:44.539Z,11.35
2019-04-26T20:31:31.385Z,11.36
2019-04-26T20:34:05.524Z,11.29
2019-04-26T20:36:40.770Z,11.31
2019-04-26T20:39:08.492Z,11.36
2019-04-26T20:41:39.082Z,11.34
2019-04-26T20:44:10.246Z,11.37
2019-04-26T20:46:42.621Z,11.42
2019-04-26T20:49:13.333Z,11.40
2019-04-26T20:51:46.355Z,11.40
2019-04-26T20:54:17.391Z,11.45
2019-04-26T20:56:52.623Z,11.44
2019-04-26T20:59:21.984Z,11.50
2019-04-26T21:02:03.317Z,11.45
2019-04-26T21:04:36.854Z,11.41
2019-04-26T21:06:57.294Z,11.41
2019-04-26T21:09:27.929Z,11.33
2019-04-26T21:11:58.568Z,11.38
2019-04-26T21:14:29.110Z,11.38
2019-04-26T21:16:59.624Z,11.35
2019-04-26T21:19:32.736Z,11.40
2019-04-26T21:22:02.691Z,11.39
2019-04-26T21:24:36.897Z,11.33
2019-04-26T21:27:35.567Z,11.42
2019-04-26T21:30:29.434Z,11.29
2019-04-26T21:33:35.821Z,11.30
2019-04-26T21:36:16.043Z,11.28
2019-04-26T21:39:11.521Z,11.31
2019-04-26T21:41:46.754Z,11.34
2019-04-26T21:44:15.859Z,11.39
2019-04-26T21:46:49.713Z,11.38
2019-04-26T21:49:20.751Z,11.38
2019-04-26T21:51:52.639Z,11.37
2019-04-26T21:54:24.874Z,11.39
2019-04-26T21:56:55.787Z,11.49
2019-04-26T21:59:26.292Z,11.41
2019-04-26T22:01:59.169Z,11.36
2019-04-26T22:04:34.107Z,11.36
2019-04-26T22:07:06.347Z,11.34
2019-04-26T22:09:52.785Z,11.31
2019-04-26T22:12:27.332Z,11.27
2019-04-26T22:15:29.631Z,11.33
2019-04-26T22:18:03.279Z,11.29
2019-04-26T22:20:38.409Z,11.31
2019-04-26T22:23:33.940Z,11.35
2019-04-26T22:26:08.378Z,11.33
2019-04-26T22:28:37.631Z,11.24
2019-04-26T22:31:08.754Z,11.23
2019-04-26T22:33:39.576Z,11.18
2019-04-26T22:36:10.152Z,11.19
2019-04-26T22:38:40.740Z,11.23
2019-04-26T22:41:11.269Z,11.26
2019-04-26T22:44:05.442Z,11.22
2019-04-26T22:46:58.863Z,11.29
2019-04-26T22:49:27.171Z,11.27
2019-04-26T22:51:57.698Z,11.31
2019-04-26T22:54:28.220Z,11.30
2019-04-26T22:56:58.769Z,11.32
2019-04-26T22:59:29.325Z,11.34
2019-04-26T23:01:59.877Z,11.29
2019-04-26T23:04:30.687Z,11.28
2019-04-26T23:07:03.423Z,11.24
2019-04-26T23:09:33.701Z,11.29
2019-04-26T23:12:28.130Z,11.29
2019-04-26T23:15:15.965Z,11.29
2019-04-26T23:18:11.595Z,11.33
2019-04-26T23:20:48.813Z,11.36
2019-04-26T23:23:19.363Z,11.31
2019-04-26T23:25:49.849Z,11.30
2019-04-26T23:28:20.402Z,11.31
2019-04-26T23:30:50.971Z,11.33
2019-04-26T23:33:21.557Z,11.32
2019-04-26T23:35:53.004Z,11.32
2019-04-26T23:38:23.862Z,11.33
2019-04-26T23:40:57.235Z,11.34
2019-04-26T23:43:26.733Z,11.40
2019-04-26T23:45:57.288Z,11.31
2019-04-26T23:48:27.785Z,11.32
2019-04-26T23:50:59.850Z,11.29
2019-04-26T23:53:30.577Z,11.28
2019-04-26T23:56:01.112Z,11.28
2019-04-26T23:58:31.656Z,11.27
